sensor_id;sensor_type;location;lat;lon;timestamp;temperature;humidity
54485;DHT22;45006;56.958;24.166;2023-02-28T00:01:20;22.30;69.80
54485;DHT22;45006;56.958;24.166;2023-02-28T00:03:47;22.30;70.50
54485;DHT22;45006;56.958;24.166;2023-02-28T00:06:14;22.30;70.30
54485;DHT22;45006;56.958;24.166;2023-02-28T00:08:42;22.30;70.60
54485;DHT22;45006;56.958;24.166;2023-02-28T00:11:11;22.30;70.30
54485;DHT22;45006;56.958;24.166;2023-02-28T00:13:41;22.30;70.10
54485;DHT22;45006;56.958;24.166;2023-02-28T00:16:11;22.30;70.00
54485;DHT22;45006;56.958;24.166;2023-02-28T00:18:38;22.30;69.90
54485;DHT22;45006;56.958;24.166;2023-02-28T00:21:06;22.30;69.80
54485;DHT22;45006;56.958;24.166;2023-02-28T00:23:33;22.30;69.80
54485;DHT22;45006;56.958;24.166;2023-02-28T00:26:00;22.30;69.80
54485;DHT22;45006;56.958;24.166;2023-02-28T00:28:29;22.30;70.10
54485;DHT22;45006;56.958;24.166;2023-02-28T00:30:56;22.30;70.10
54485;DHT22;45006;56.958;24.166;2023-02-28T00:33:24;22.30;70.30
54485;DHT22;45006;56.958;24.166;2023-02-28T00:35:51;22.30;69.80
54485;DHT22;45006;56.958;24.166;2023-02-28T00:38:18;22.30;70.10
54485;DHT22;45006;56.958;24.166;2023-02-28T00:40:45;22.30;70.10
54485;DHT22;45006;56.958;24.166;2023-02-28T00:43:12;22.30;70.10
54485;DHT22;45006;56.958;24.166;2023-02-28T00:45:39;22.30;70.00
54485;DHT22;45006;56.958;24.166;2023-02-28T00:48:06;22.40;70.10
54485;DHT22;45006;56.958;24.166;2023-02-28T00:50:33;22.40;70.20
54485;DHT22;45006;56.958;24.166;2023-02-28T00:53:00;22.40;70.00
54485;DHT22;45006;56.958;24.166;2023-02-28T00:55:27;22.30;70.10
54485;DHT22;45006;56.958;24.166;2023-02-28T00:57:53;22.40;70.20
54485;DHT22;45006;56.958;24.166;2023-02-28T01:00:20;22.40;70.10
54485;DHT22;45006;56.958;24.166;2023-02-28T01:02:47;22.40;70.00
54485;DHT22;45006;56.958;24.166;2023-02-28T01:05:14;22.40;70.10
54485;DHT22;45006;56.958;24.166;2023-02-28T01:07:42;22.40;69.70
54485;DHT22;45006;56.958;24.166;2023-02-28T01:10:09;22.30;69.70
54485;DHT22;45006;56.958;24.166;2023-02-28T01:12:36;22.40;70.30
54485;DHT22;45006;56.958;24.166;2023-02-28T01:15:04;22.40;70.00
54485;DHT22;45006;56.958;24.166;2023-02-28T01:17:31;22.40;70.20
54485;DHT22;45006;56.958;24.166;2023-02-28T01:19:58;22.40;70.10
54485;DHT22;45006;56.958;24.166;2023-02-28T01:22:25;22.40;70.10
54485;DHT22;45006;56.958;24.166;2023-02-28T01:24:54;22.40;70.10
54485;DHT22;45006;56.958;24.166;2023-02-28T01:27:21;22.40;70.40
54485;DHT22;45006;56.958;24.166;2023-02-28T01:29:50;22.40;70.30
54485;DHT22;45006;56.958;24.166;2023-02-28T01:32:17;22.40;70.10
54485;DHT22;45006;56.958;24.166;2023-02-28T01:34:44;22.40;70.20
54485;DHT22;45006;56.958;24.166;2023-02-28T01:37:11;22.40;70.30
54485;DHT22;45006;56.958;24.166;2023-02-28T01:39:38;22.40;69.80
54485;DHT22;45006;56.958;24.166;2023-02-28T01:42:05;22.40;70.30
54485;DHT22;45006;56.958;24.166;2023-02-28T01:45:02;22.40;70.30
54485;DHT22;45006;56.958;24.166;2023-02-28T01:47:36;22.40;70.20
54485;DHT22;45006;56.958;24.166;2023-02-28T01:50:09;22.40;70.60
54485;DHT22;45006;56.958;24.166;2023-02-28T01:52:37;22.40;70.20
54485;DHT22;45006;56.958;24.166;2023-02-28T01:55:06;22.40;70.80
54485;DHT22;45006;56.958;24.166;2023-02-28T01:57:38;22.40;71.50
54485;DHT22;45006;56.958;24.166;2023-02-28T02:00:13;22.40;71.00
54485;DHT22;45006;56.958;24.166;2023-02-28T02:02:41;22.40;71.00
54485;DHT22;45006;56.958;24.166;2023-02-28T02:05:14;22.40;70.70
54485;DHT22;45006;56.958;24.166;2023-02-28T02:07:44;22.40;71.20
54485;DHT22;45006;56.958;24.166;2023-02-28T02:10:16;22.40;71.00
54485;DHT22;45006;56.958;24.166;2023-02-28T02:15:42;22.40;70.30
54485;DHT22;45006;56.958;24.166;2023-02-28T02:18:54;22.40;70.30
54485;DHT22;45006;56.958;24.166;2023-02-28T02:26:27;22.40;70.80
54485;DHT22;45006;56.958;24.166;2023-02-28T02:35:43;22.40;70.10
54485;DHT22;45006;56.958;24.166;2023-02-28T02:40:25;22.40;70.50
54485;DHT22;45006;56.958;24.166;2023-02-28T02:43:08;22.40;70.60
54485;DHT22;45006;56.958;24.166;2023-02-28T02:45:45;22.40;71.00
54485;DHT22;45006;56.958;24.166;2023-02-28T02:48:18;22.50;70.40
54485;DHT22;45006;56.958;24.166;2023-02-28T02:50:50;22.40;70.40
54485;DHT22;45006;56.958;24.166;2023-02-28T02:53:21;22.40;71.00
54485;DHT22;45006;56.958;24.166;2023-02-28T02:55:51;22.40;70.90
54485;DHT22;45006;56.958;24.166;2023-02-28T02:58:33;22.40;70.60
54485;DHT22;45006;56.958;24.166;2023-02-28T03:01:03;22.40;70.80
54485;DHT22;45006;56.958;24.166;2023-02-28T03:03:32;22.40;70.70
54485;DHT22;45006;56.958;24.166;2023-02-28T03:06:01;22.40;70.90
54485;DHT22;45006;56.958;24.166;2023-02-28T03:08:33;22.40;70.90
54485;DHT22;45006;56.958;24.166;2023-02-28T03:11:05;22.40;70.80
54485;DHT22;45006;56.958;24.166;2023-02-28T03:27:42;22.40;70.70
54485;DHT22;45006;56.958;24.166;2023-02-28T03:30:15;22.40;70.80
54485;DHT22;45006;56.958;24.166;2023-02-28T03:33:12;22.40;70.70
54485;DHT22;45006;56.958;24.166;2023-02-28T03:36:02;22.40;70.90
54485;DHT22;45006;56.958;24.166;2023-02-28T03:38:46;22.40;71.00
54485;DHT22;45006;56.958;24.166;2023-02-28T03:41:32;22.40;71.00
54485;DHT22;45006;56.958;24.166;2023-02-28T03:44:09;22.40;71.00
54485;DHT22;45006;56.958;24.166;2023-02-28T03:46:52;22.40;70.90
54485;DHT22;45006;56.958;24.166;2023-02-28T03:49:24;22.40;71.00
54485;DHT22;45006;56.958;24.166;2023-02-28T03:51:56;22.40;71.20
54485;DHT22;45006;56.958;24.166;2023-02-28T03:54:40;22.50;71.30
54485;DHT22;45006;56.958;24.166;2023-02-28T03:57:22;22.50;71.20
54485;DHT22;45006;56.958;24.166;2023-02-28T04:00:28;22.50;71.50
54485;DHT22;45006;56.958;24.166;2023-02-28T04:02:57;22.50;71.40
54485;DHT22;45006;56.958;24.166;2023-02-28T04:05:25;22.50;71.60
54485;DHT22;45006;56.958;24.166;2023-02-28T04:07:52;22.50;71.50
54485;DHT22;45006;56.958;24.166;2023-02-28T04:10:20;22.50;71.40
54485;DHT22;45006;56.958;24.166;2023-02-28T04:12:48;22.50;71.50
54485;DHT22;45006;56.958;24.166;2023-02-28T04:15:15;22.50;71.50
54485;DHT22;45006;56.958;24.166;2023-02-28T04:17:41;22.50;71.60
54485;DHT22;45006;56.958;24.166;2023-02-28T04:20:10;22.50;71.60
54485;DHT22;45006;56.958;24.166;2023-02-28T04:22:38;22.50;71.80
54485;DHT22;45006;56.958;24.166;2023-02-28T04:25:05;22.50;71.70
54485;DHT22;45006;56.958;24.166;2023-02-28T04:27:33;22.50;71.90
54485;DHT22;45006;56.958;24.166;2023-02-28T04:30:00;22.50;72.00
54485;DHT22;45006;56.958;24.166;2023-02-28T04:32:27;22.50;72.00
54485;DHT22;45006;56.958;24.166;2023-02-28T04:34:55;22.50;72.00
54485;DHT22;45006;56.958;24.166;2023-02-28T04:37:22;22.50;72.10
54485;DHT22;45006;56.958;24.166;2023-02-28T04:39:54;22.50;72.10
54485;DHT22;45006;56.958;24.166;2023-02-28T04:42:21;22.50;72.20
54485;DHT22;45006;56.958;24.166;2023-02-28T04:44:48;22.50;72.60
54485;DHT22;45006;56.958;24.166;2023-02-28T04:47:15;22.50;72.80
54485;DHT22;45006;56.958;24.166;2023-02-28T04:49:42;22.50;72.80
54485;DHT22;45006;56.958;24.166;2023-02-28T04:52:09;22.50;73.20
54485;DHT22;45006;56.958;24.166;2023-02-28T04:54:38;22.50;73.00
54485;DHT22;45006;56.958;24.166;2023-02-28T04:57:05;22.50;73.30
54485;DHT22;45006;56.958;24.166;2023-02-28T04:59:33;22.50;73.60
54485;DHT22;45006;56.958;24.166;2023-02-28T05:01:59;22.50;73.50
54485;DHT22;45006;56.958;24.166;2023-02-28T05:04:26;22.50;73.70
54485;DHT22;45006;56.958;24.166;2023-02-28T05:06:53;22.50;74.00
54485;DHT22;45006;56.958;24.166;2023-02-28T05:09:22;22.50;74.00
54485;DHT22;45006;56.958;24.166;2023-02-28T05:11:48;22.50;74.40
54485;DHT22;45006;56.958;24.166;2023-02-28T05:14:15;22.50;74.70
54485;DHT22;45006;56.958;24.166;2023-02-28T05:16:42;22.50;74.70
54485;DHT22;45006;56.958;24.166;2023-02-28T05:19:10;22.50;75.10
54485;DHT22;45006;56.958;24.166;2023-02-28T05:21:49;22.50;75.40
54485;DHT22;45006;56.958;24.166;2023-02-28T05:24:17;22.50;75.80
54485;DHT22;45006;56.958;24.166;2023-02-28T05:26:51;22.50;76.00
54485;DHT22;45006;56.958;24.166;2023-02-28T05:29:19;22.50;76.30
54485;DHT22;45006;56.958;24.166;2023-02-28T05:31:46;22.50;76.70
54485;DHT22;45006;56.958;24.166;2023-02-28T05:34:13;22.50;76.90
54485;DHT22;45006;56.958;24.166;2023-02-28T05:36:42;22.50;77.40
54485;DHT22;45006;56.958;24.166;2023-02-28T05:39:09;22.50;78.10
54485;DHT22;45006;56.958;24.166;2023-02-28T05:41:41;22.50;78.80
54485;DHT22;45006;56.958;24.166;2023-02-28T05:44:09;22.50;79.20
54485;DHT22;45006;56.958;24.166;2023-02-28T05:46:36;22.50;79.70
54485;DHT22;45006;56.958;24.166;2023-02-28T05:49:03;22.50;80.00
54485;DHT22;45006;56.958;24.166;2023-02-28T05:51:30;22.50;80.70
54485;DHT22;45006;56.958;24.166;2023-02-28T05:54:01;22.50;81.00
54485;DHT22;45006;56.958;24.166;2023-02-28T05:56:29;22.50;82.00
54485;DHT22;45006;56.958;24.166;2023-02-28T05:58:56;22.60;82.40
54485;DHT22;45006;56.958;24.166;2023-02-28T06:01:35;22.50;82.60
54485;DHT22;45006;56.958;24.166;2023-02-28T06:04:05;22.60;83.00
54485;DHT22;45006;56.958;24.166;2023-02-28T06:06:33;22.50;83.20
54485;DHT22;45006;56.958;24.166;2023-02-28T06:09:05;22.50;83.60
54485;DHT22;45006;56.958;24.166;2023-02-28T06:11:32;22.50;84.10
54485;DHT22;45006;56.958;24.166;2023-02-28T06:14:01;22.50;85.00
54485;DHT22;45006;56.958;24.166;2023-02-28T06:16:29;22.50;85.40
54485;DHT22;45006;56.958;24.166;2023-02-28T06:19:02;22.60;85.50
54485;DHT22;45006;56.958;24.166;2023-02-28T06:21:30;22.50;85.50
54485;DHT22;45006;56.958;24.166;2023-02-28T06:24:00;22.60;85.00
54485;DHT22;45006;56.958;24.166;2023-02-28T06:26:27;22.60;84.90
54485;DHT22;45006;56.958;24.166;2023-02-28T06:28:54;22.60;84.90
54485;DHT22;45006;56.958;24.166;2023-02-28T06:31:22;22.60;84.90
54485;DHT22;45006;56.958;24.166;2023-02-28T06:34:01;22.60;84.90
54485;DHT22;45006;56.958;24.166;2023-02-28T06:36:28;22.60;85.40
54485;DHT22;45006;56.958;24.166;2023-02-28T06:38:54;22.60;85.60
54485;DHT22;45006;56.958;24.166;2023-02-28T06:41:24;22.60;86.10
54485;DHT22;45006;56.958;24.166;2023-02-28T06:43:53;22.60;86.30
54485;DHT22;45006;56.958;24.166;2023-02-28T06:46:20;22.60;86.00
54485;DHT22;45006;56.958;24.166;2023-02-28T06:48:47;22.60;86.50
54485;DHT22;45006;56.958;24.166;2023-02-28T06:51:19;22.60;86.80
54485;DHT22;45006;56.958;24.166;2023-02-28T06:53:48;22.60;87.10
54485;DHT22;45006;56.958;24.166;2023-02-28T06:56:17;22.60;87.90
54485;DHT22;45006;56.958;24.166;2023-02-28T06:58:50;22.60;88.20
54485;DHT22;45006;56.958;24.166;2023-02-28T07:01:19;22.60;88.30
54485;DHT22;45006;56.958;24.166;2023-02-28T07:03:46;22.60;88.60
54485;DHT22;45006;56.958;24.166;2023-02-28T07:06:13;22.60;88.70
54485;DHT22;45006;56.958;24.166;2023-02-28T07:08:44;22.60;88.60
54485;DHT22;45006;56.958;24.166;2023-02-28T07:11:13;22.70;89.30
54485;DHT22;45006;56.958;24.166;2023-02-28T07:13:40;22.70;89.70
54485;DHT22;45006;56.958;24.166;2023-02-28T07:16:12;22.70;89.70
54485;DHT22;45006;56.958;24.166;2023-02-28T07:18:39;22.70;89.90
54485;DHT22;45006;56.958;24.166;2023-02-28T07:21:09;22.70;90.00
54485;DHT22;45006;56.958;24.166;2023-02-28T07:23:37;22.70;90.00
54485;DHT22;45006;56.958;24.166;2023-02-28T07:26:05;22.70;90.20
54485;DHT22;45006;56.958;24.166;2023-02-28T07:28:33;22.70;90.10
54485;DHT22;45006;56.958;24.166;2023-02-28T07:31:05;22.70;90.20
54485;DHT22;45006;56.958;24.166;2023-02-28T07:33:34;22.70;90.20
54485;DHT22;45006;56.958;24.166;2023-02-28T07:36:06;22.70;90.50
54485;DHT22;45006;56.958;24.166;2023-02-28T07:38:37;22.70;90.40
54485;DHT22;45006;56.958;24.166;2023-02-28T07:41:05;22.70;90.30
54485;DHT22;45006;56.958;24.166;2023-02-28T07:43:34;22.70;90.50
54485;DHT22;45006;56.958;24.166;2023-02-28T07:46:13;22.70;90.50
54485;DHT22;45006;56.958;24.166;2023-02-28T07:48:43;22.80;90.40
54485;DHT22;45006;56.958;24.166;2023-02-28T07:51:10;22.70;90.50
54485;DHT22;45006;56.958;24.166;2023-02-28T07:53:37;22.80;90.70
54485;DHT22;45006;56.958;24.166;2023-02-28T07:56:04;22.80;90.10
54485;DHT22;45006;56.958;24.166;2023-02-28T07:58:31;22.80;90.10
54485;DHT22;45006;56.958;24.166;2023-02-28T08:01:05;22.80;90.00
54485;DHT22;45006;56.958;24.166;2023-02-28T08:03:34;22.80;90.00
54485;DHT22;45006;56.958;24.166;2023-02-28T08:06:03;22.80;90.20
54485;DHT22;45006;56.958;24.166;2023-02-28T08:08:31;22.80;90.60
54485;DHT22;45006;56.958;24.166;2023-02-28T08:10:59;22.80;91.40
54485;DHT22;45006;56.958;24.166;2023-02-28T08:13:28;22.80;91.70
54485;DHT22;45006;56.958;24.166;2023-02-28T08:15:56;22.80;91.50
54485;DHT22;45006;56.958;24.166;2023-02-28T08:18:25;22.80;91.00
54485;DHT22;45006;56.958;24.166;2023-02-28T08:20:53;22.90;91.20
54485;DHT22;45006;56.958;24.166;2023-02-28T08:23:20;22.80;91.10
54485;DHT22;45006;56.958;24.166;2023-02-28T08:25:55;22.80;90.80
54485;DHT22;45006;56.958;24.166;2023-02-28T08:28:22;22.80;90.80
54485;DHT22;45006;56.958;24.166;2023-02-28T08:30:53;22.80;90.90
54485;DHT22;45006;56.958;24.166;2023-02-28T08:33:22;22.80;90.90
54485;DHT22;45006;56.958;24.166;2023-02-28T08:35:55;22.80;90.60
54485;DHT22;45006;56.958;24.166;2023-02-28T08:38:23;22.80;90.50
54485;DHT22;45006;56.958;24.166;2023-02-28T08:40:56;22.80;90.70
54485;DHT22;45006;56.958;24.166;2023-02-28T08:43:23;22.80;90.40
54485;DHT22;45006;56.958;24.166;2023-02-28T08:45:55;22.80;90.50
54485;DHT22;45006;56.958;24.166;2023-02-28T08:48:31;22.80;90.30
54485;DHT22;45006;56.958;24.166;2023-02-28T08:51:05;22.80;88.90
54485;DHT22;45006;56.958;24.166;2023-02-28T08:53:37;22.80;86.00
54485;DHT22;45006;56.958;24.166;2023-02-28T08:56:10;22.80;85.30
54485;DHT22;45006;56.958;24.166;2023-02-28T08:58:38;22.80;84.80
54485;DHT22;45006;56.958;24.166;2023-02-28T09:01:12;22.80;84.40
54485;DHT22;45006;56.958;24.166;2023-02-28T09:03:40;22.80;83.90
54485;DHT22;45006;56.958;24.166;2023-02-28T09:06:10;22.80;83.90
54485;DHT22;45006;56.958;24.166;2023-02-28T09:08:38;22.80;84.00
54485;DHT22;45006;56.958;24.166;2023-02-28T09:11:06;22.80;84.00
54485;DHT22;45006;56.958;24.166;2023-02-28T09:13:33;22.80;84.60
54485;DHT22;45006;56.958;24.166;2023-02-28T09:16:03;22.80;83.70
54485;DHT22;45006;56.958;24.166;2023-02-28T09:18:30;22.80;83.80
54485;DHT22;45006;56.958;24.166;2023-02-28T09:20:57;22.80;83.80
54485;DHT22;45006;56.958;24.166;2023-02-28T09:23:24;22.80;83.60
54485;DHT22;45006;56.958;24.166;2023-02-28T09:25:54;22.80;83.50
54485;DHT22;45006;56.958;24.166;2023-02-28T09:28:22;22.80;83.80
54485;DHT22;45006;56.958;24.166;2023-02-28T09:30:52;22.80;83.70
54485;DHT22;45006;56.958;24.166;2023-02-28T09:33:20;22.80;83.60
54485;DHT22;45006;56.958;24.166;2023-02-28T09:35:51;22.80;83.70
54485;DHT22;45006;56.958;24.166;2023-02-28T09:38:24;22.80;83.70
54485;DHT22;45006;56.958;24.166;2023-02-28T09:40:55;22.80;83.80
54485;DHT22;45006;56.958;24.166;2023-02-28T09:43:27;22.80;83.60
54485;DHT22;45006;56.958;24.166;2023-02-28T09:48:47;22.80;83.70
54485;DHT22;45006;56.958;24.166;2023-02-28T09:51:51;22.90;83.70
54485;DHT22;45006;56.958;24.166;2023-02-28T09:54:21;22.80;83.70
54485;DHT22;45006;56.958;24.166;2023-02-28T10:03:10;22.80;83.20
54485;DHT22;45006;56.958;24.166;2023-02-28T10:08:21;22.90;83.40
54485;DHT22;45006;56.958;24.166;2023-02-28T10:10:58;22.80;83.40
54485;DHT22;45006;56.958;24.166;2023-02-28T10:13:49;22.80;83.80
54485;DHT22;45006;56.958;24.166;2023-02-28T10:16:22;22.80;83.40
54485;DHT22;45006;56.958;24.166;2023-02-28T10:19:04;22.90;83.50
54485;DHT22;45006;56.958;24.166;2023-02-28T10:21:39;22.80;83.70
54485;DHT22;45006;56.958;24.166;2023-02-28T10:27:01;22.80;83.20
54485;DHT22;45006;56.958;24.166;2023-02-28T10:29:32;22.80;83.30
54485;DHT22;45006;56.958;24.166;2023-02-28T10:32:02;22.80;83.30
54485;DHT22;45006;56.958;24.166;2023-02-28T10:34:30;22.80;83.40
54485;DHT22;45006;56.958;24.166;2023-02-28T10:36:58;22.80;83.30
54485;DHT22;45006;56.958;24.166;2023-02-28T10:39:42;22.90;83.40
54485;DHT22;45006;56.958;24.166;2023-02-28T10:42:41;22.80;83.40
54485;DHT22;45006;56.958;24.166;2023-02-28T10:45:14;22.80;83.20
54485;DHT22;45006;56.958;24.166;2023-02-28T10:58:56;22.80;80.50
54485;DHT22;45006;56.958;24.166;2023-02-28T11:01:44;22.80;79.90
54485;DHT22;45006;56.958;24.166;2023-02-28T11:09:36;22.80;80.10
54485;DHT22;45006;56.958;24.166;2023-02-28T11:12:10;22.80;80.30
54485;DHT22;45006;56.958;24.166;2023-02-28T11:15:02;22.80;80.40
54485;DHT22;45006;56.958;24.166;2023-02-28T11:17:31;22.80;80.50
54485;DHT22;45006;56.958;24.166;2023-02-28T11:20:03;22.80;80.70
54485;DHT22;45006;56.958;24.166;2023-02-28T11:22:35;22.80;80.40
54485;DHT22;45006;56.958;24.166;2023-02-28T11:25:21;22.80;80.50
54485;DHT22;45006;56.958;24.166;2023-02-28T11:27:53;22.90;81.20
54485;DHT22;45006;56.958;24.166;2023-02-28T11:30:38;22.80;80.80
54485;DHT22;45006;56.958;24.166;2023-02-28T11:33:58;22.80;80.90
54485;DHT22;45006;56.958;24.166;2023-02-28T11:36:22;22.90;81.20
54485;DHT22;45006;56.958;24.166;2023-02-28T11:38:55;22.90;81.40
54485;DHT22;45006;56.958;24.166;2023-02-28T11:42:19;22.80;81.00
54485;DHT22;45006;56.958;24.166;2023-02-28T11:47:39;22.80;79.10
54485;DHT22;45006;56.958;24.166;2023-02-28T11:56:03;22.80;79.00
54485;DHT22;45006;56.958;24.166;2023-02-28T12:04:17;22.80;80.10
54485;DHT22;45006;56.958;24.166;2023-02-28T12:09:45;22.80;80.10
54485;DHT22;45006;56.958;24.166;2023-02-28T12:15:13;22.80;80.10
54485;DHT22;45006;56.958;24.166;2023-02-28T12:18:15;22.80;80.10
54485;DHT22;45006;56.958;24.166;2023-02-28T12:26:40;22.80;80.20
54485;DHT22;45006;56.958;24.166;2023-02-28T12:29:19;22.80;80.00
54485;DHT22;45006;56.958;24.166;2023-02-28T12:32:03;22.80;80.30
54485;DHT22;45006;56.958;24.166;2023-02-28T12:34:39;22.80;80.20
54485;DHT22;45006;56.958;24.166;2023-02-28T12:37:17;22.80;80.30
54485;DHT22;45006;56.958;24.166;2023-02-28T12:39:50;22.80;80.50
54485;DHT22;45006;56.958;24.166;2023-02-28T12:42:32;22.80;80.30
54485;DHT22;45006;56.958;24.166;2023-02-28T12:45:20;22.80;80.20
54485;DHT22;45006;56.958;24.166;2023-02-28T12:48:00;22.80;80.20
54485;DHT22;45006;56.958;24.166;2023-02-28T12:50:28;22.80;80.50
54485;DHT22;45006;56.958;24.166;2023-02-28T12:53:25;22.80;80.70
54485;DHT22;45006;56.958;24.166;2023-02-28T12:56:33;22.80;80.30
54485;DHT22;45006;56.958;24.166;2023-02-28T12:59:18;22.80;80.90
54485;DHT22;45006;56.958;24.166;2023-02-28T13:04:42;22.80;80.50
54485;DHT22;45006;56.958;24.166;2023-02-28T13:09:54;22.80;80.80
54485;DHT22;45006;56.958;24.166;2023-02-28T13:12:21;22.80;80.90
54485;DHT22;45006;56.958;24.166;2023-02-28T13:14:50;22.80;81.40
54485;DHT22;45006;56.958;24.166;2023-02-28T13:17:21;22.80;81.20
54485;DHT22;45006;56.958;24.166;2023-02-28T13:22:48;22.80;81.50
54485;DHT22;45006;56.958;24.166;2023-02-28T13:28:03;22.80;81.60
54485;DHT22;45006;56.958;24.166;2023-02-28T13:33:31;22.80;81.70
54485;DHT22;45006;56.958;24.166;2023-02-28T13:38:54;22.80;82.30
54485;DHT22;45006;56.958;24.166;2023-02-28T13:44:12;22.80;81.80
54485;DHT22;45006;56.958;24.166;2023-02-28T13:52:15;22.80;82.30
54485;DHT22;45006;56.958;24.166;2023-02-28T13:55:45;22.80;82.50
54485;DHT22;45006;56.958;24.166;2023-02-28T14:06:39;22.70;83.00
54485;DHT22;45006;56.958;24.166;2023-02-28T14:09:33;22.80;82.90
54485;DHT22;45006;56.958;24.166;2023-02-28T14:20:40;22.80;83.80
54485;DHT22;45006;56.958;24.166;2023-02-28T14:37:14;22.70;86.40
54485;DHT22;45006;56.958;24.166;2023-02-28T14:39:43;22.70;86.00
54485;DHT22;45006;56.958;24.166;2023-02-28T14:42:33;22.70;86.10
54485;DHT22;45006;56.958;24.166;2023-02-28T14:45:01;22.70;86.20
54485;DHT22;45006;56.958;24.166;2023-02-28T14:47:33;22.70;86.30
54485;DHT22;45006;56.958;24.166;2023-02-28T14:50:03;22.70;86.80
54485;DHT22;45006;56.958;24.166;2023-02-28T14:52:32;22.70;87.00
54485;DHT22;45006;56.958;24.166;2023-02-28T14:55:20;22.70;86.50
54485;DHT22;45006;56.958;24.166;2023-02-28T14:57:55;22.70;87.50
54485;DHT22;45006;56.958;24.166;2023-02-28T15:02:52;22.60;87.30
54485;DHT22;45006;56.958;24.166;2023-02-28T15:05:31;22.60;87.10
54485;DHT22;45006;56.958;24.166;2023-02-28T15:08:15;22.70;87.80
54485;DHT22;45006;56.958;24.166;2023-02-28T15:10:58;22.60;87.80
54485;DHT22;45006;56.958;24.166;2023-02-28T15:13:39;22.60;87.50
54485;DHT22;45006;56.958;24.166;2023-02-28T15:16:14;22.60;88.40
54485;DHT22;45006;56.958;24.166;2023-02-28T15:18:54;22.60;88.50
54485;DHT22;45006;56.958;24.166;2023-02-28T15:21:29;22.60;89.40
54485;DHT22;45006;56.958;24.166;2023-02-28T15:26:41;22.60;89.00
54485;DHT22;45006;56.958;24.166;2023-02-28T15:29:16;22.60;89.10
54485;DHT22;45006;56.958;24.166;2023-02-28T15:31:48;22.60;89.50
54485;DHT22;45006;56.958;24.166;2023-02-28T15:34:36;22.60;89.50
54485;DHT22;45006;56.958;24.166;2023-02-28T15:42:40;22.60;90.30
54485;DHT22;45006;56.958;24.166;2023-02-28T15:45:41;22.60;89.90
54485;DHT22;45006;56.958;24.166;2023-02-28T15:53:17;22.60;90.30
54485;DHT22;45006;56.958;24.166;2023-02-28T17:02:01;22.50;92.30
54485;DHT22;45006;56.958;24.166;2023-02-28T17:04:28;22.50;91.20
54485;DHT22;45006;56.958;24.166;2023-02-28T17:06:56;22.50;90.60
54485;DHT22;45006;56.958;24.166;2023-02-28T17:09:24;22.50;90.40
54485;DHT22;45006;56.958;24.166;2023-02-28T17:12:06;22.40;90.00
54485;DHT22;45006;56.958;24.166;2023-02-28T17:14:33;22.40;90.50
54485;DHT22;45006;56.958;24.166;2023-02-28T17:17:00;22.50;90.30
54485;DHT22;45006;56.958;24.166;2023-02-28T17:19:27;22.40;90.30
54485;DHT22;45006;56.958;24.166;2023-02-28T17:21:55;22.50;90.00
54485;DHT22;45006;56.958;24.166;2023-02-28T17:24:22;22.50;89.80
54485;DHT22;45006;56.958;24.166;2023-02-28T17:26:57;22.40;90.00
54485;DHT22;45006;56.958;24.166;2023-02-28T17:29:24;22.50;90.10
54485;DHT22;45006;56.958;24.166;2023-02-28T17:31:51;22.40;89.80
54485;DHT22;45006;56.958;24.166;2023-02-28T17:34:19;22.40;88.90
54485;DHT22;45006;56.958;24.166;2023-02-28T17:36:48;22.50;88.50
54485;DHT22;45006;56.958;24.166;2023-02-28T17:39:17;22.40;90.20
54485;DHT22;45006;56.958;24.166;2023-02-28T17:41:54;22.40;90.20
54485;DHT22;45006;56.958;24.166;2023-02-28T17:44:23;22.40;90.30
54485;DHT22;45006;56.958;24.166;2023-02-28T17:46:51;22.40;90.40
54485;DHT22;45006;56.958;24.166;2023-02-28T17:49:18;22.40;90.10
54485;DHT22;45006;56.958;24.166;2023-02-28T17:51:46;22.40;90.20
54485;DHT22;45006;56.958;24.166;2023-02-28T17:54:13;22.40;90.10
54485;DHT22;45006;56.958;24.166;2023-02-28T17:56:45;22.40;90.10
54485;DHT22;45006;56.958;24.166;2023-02-28T17:59:12;22.40;90.10
54485;DHT22;45006;56.958;24.166;2023-02-28T18:01:39;22.40;90.10
54485;DHT22;45006;56.958;24.166;2023-02-28T18:04:06;22.40;90.00
54485;DHT22;45006;56.958;24.166;2023-02-28T18:06:37;22.40;90.20
54485;DHT22;45006;56.958;24.166;2023-02-28T18:09:18;22.40;90.10
54485;DHT22;45006;56.958;24.166;2023-02-28T18:11:52;22.40;89.90
54485;DHT22;45006;56.958;24.166;2023-02-28T18:14:22;22.40;90.00
54485;DHT22;45006;56.958;24.166;2023-02-28T18:16:51;22.40;90.00
54485;DHT22;45006;56.958;24.166;2023-02-28T18:19:18;22.40;89.80
54485;DHT22;45006;56.958;24.166;2023-02-28T18:21:49;22.40;89.80
54485;DHT22;45006;56.958;24.166;2023-02-28T18:24:18;22.40;84.90
54485;DHT22;45006;56.958;24.166;2023-02-28T18:26:46;22.30;84.20
54485;DHT22;45006;56.958;24.166;2023-02-28T18:29:20;22.40;84.70
54485;DHT22;45006;56.958;24.166;2023-02-28T18:31:48;22.30;84.50
54485;DHT22;45006;56.958;24.166;2023-02-28T18:34:15;22.30;85.20
54485;DHT22;45006;56.958;24.166;2023-02-28T18:36:44;22.40;85.40
54485;DHT22;45006;56.958;24.166;2023-02-28T18:39:14;22.40;85.30
54485;DHT22;45006;56.958;24.166;2023-02-28T18:41:41;22.30;85.00
54485;DHT22;45006;56.958;24.166;2023-02-28T18:44:08;22.30;85.60
54485;DHT22;45006;56.958;24.166;2023-02-28T18:46:45;22.40;85.40
54485;DHT22;45006;56.958;24.166;2023-02-28T18:49:13;22.30;85.30
54485;DHT22;45006;56.958;24.166;2023-02-28T18:51:40;22.30;85.50
54485;DHT22;45006;56.958;24.166;2023-02-28T18:54:13;22.30;85.50
54485;DHT22;45006;56.958;24.166;2023-02-28T18:56:42;22.30;85.40
54485;DHT22;45006;56.958;24.166;2023-02-28T18:59:09;22.30;86.00
54485;DHT22;45006;56.958;24.166;2023-02-28T19:01:36;22.30;85.10
54485;DHT22;45006;56.958;24.166;2023-02-28T19:04:04;22.30;86.00
54485;DHT22;45006;56.958;24.166;2023-02-28T19:06:33;22.30;86.10
54485;DHT22;45006;56.958;24.166;2023-02-28T19:09:01;22.20;86.10
54485;DHT22;45006;56.958;24.166;2023-02-28T19:11:30;22.30;85.90
54485;DHT22;45006;56.958;24.166;2023-02-28T19:13:57;22.30;86.30
54485;DHT22;45006;56.958;24.166;2023-02-28T19:16:24;22.30;85.60
54485;DHT22;45006;56.958;24.166;2023-02-28T19:18:54;22.30;85.40
54485;DHT22;45006;56.958;24.166;2023-02-28T19:21:22;22.30;85.60
54485;DHT22;45006;56.958;24.166;2023-02-28T19:23:51;22.30;85.90
54485;DHT22;45006;56.958;24.166;2023-02-28T19:26:21;22.30;85.20
54485;DHT22;45006;56.958;24.166;2023-02-28T19:28:48;22.30;85.10
54485;DHT22;45006;56.958;24.166;2023-02-28T19:31:21;22.30;85.60